Time;durP1;ratioP1;P1;durP2;ratioP2;P2;SDS_P1;SDS_P2;PMS_P1;PMS_P2;Temp;Humidity;BMP_temperature;BMP_pressure;BME280_temperature;BME280_humidity;BME280_pressure;Samples;Min_cycle;Max_cycle;Signal;HPM_P1;HPM_P2
2021/09/23 00:00:16;;;;;;;11.05;5.50;;;;;;;;;;5094001;28;20377;-88
2021/09/23 00:05:10;;;;;;;12.52;5.45;;;;;;;;;;5090328;28;20028;-88
2021/09/23 00:07:35;;;;;;;10.02;5.07;;;;;;;;;;5104536;28;20021;-88
2021/09/23 00:10:00;;;;;;;10.98;5.15;;;;;;;;;;5094061;28;20755;-88
2021/09/23 00:12:26;;;;;;;16.50;7.70;;;;;;;;;;5093878;28;20584;-88
2021/09/23 00:14:51;;;;;;;17.90;8.95;;;;;;;;;;5110859;28;20047;-87
2021/09/23 00:17:16;;;;;;;12.43;6.30;;;;;;;;;;5094219;28;20777;-88
2021/09/23 00:19:41;;;;;;;12.68;6.53;;;;;;;;;;5095398;28;20103;-88
2021/09/23 00:22:07;;;;;;;20.10;7.95;;;;;;;;;;5093083;28;20081;-87
2021/09/23 00:24:32;;;;;;;22.70;10.80;;;;;;;;;;5110873;28;20028;-88
2021/09/23 00:26:57;;;;;;;19.15;9.00;;;;;;;;;;5093649;28;20119;-88
2021/09/23 00:29:22;;;;;;;16.92;8.00;;;;;;;;;;5088285;28;20379;-88
2021/09/23 00:31:47;;;;;;;18.60;9.35;;;;;;;;;;5108287;28;20077;-88
2021/09/23 00:34:13;;;;;;;16.52;8.40;;;;;;;;;;5094927;28;20024;-88
2021/09/23 00:36:38;;;;;;;17.60;7.30;;;;;;;;;;5110852;28;20058;-88
2021/09/23 00:39:03;;;;;;;14.10;6.93;;;;;;;;;;5110357;28;20375;-88
2021/09/23 00:41:28;;;;;;;14.13;7.65;;;;;;;;;;5093363;28;20024;-88
2021/09/23 00:43:54;;;;;;;13.95;7.30;;;;;;;;;;5102889;28;20021;-88
2021/09/23 00:46:19;;;;;;;17.65;7.70;;;;;;;;;;5094112;28;20027;-87
2021/09/23 00:48:49;;;;;;;15.35;6.88;;;;;;;;;;5094522;28;20020;-88
2021/09/23 00:51:16;;;;;;;13.93;7.47;;;;;;;;;;5108754;28;20032;-88
2021/09/23 00:53:41;;;;;;;16.08;7.68;;;;;;;;;;5089047;28;20490;-87
2021/09/23 00:56:06;;;;;;;20.70;8.15;;;;;;;;;;5109541;28;20020;-88
2021/09/23 00:58:31;;;;;;;15.07;8.55;;;;;;;;;;5092839;28;20023;-88
2021/09/23 01:00:56;;;;;;;17.45;8.43;;;;;;;;;;5110261;28;20020;-88
2021/09/23 01:03:22;;;;;;;17.45;8.15;;;;;;;;;;5107036;28;20020;-88
2021/09/23 01:05:47;;;;;;;18.80;8.15;;;;;;;;;;5093321;28;20020;-88
2021/09/23 01:08:12;;;;;;;17.88;7.50;;;;;;;;;;5094248;28;20023;-88
2021/09/23 01:10:37;;;;;;;14.45;7.38;;;;;;;;;;5093037;28;20574;-88
2021/09/23 01:13:02;;;;;;;14.57;7.28;;;;;;;;;;5094452;28;20050;-88
2021/09/23 01:15:28;;;;;;;16.27;7.78;;;;;;;;;;5093901;28;20112;-88
2021/09/23 01:17:53;;;;;;;14.63;7.43;;;;;;;;;;5109039;28;20441;-88
2021/09/23 01:20:19;;;;;;;19.55;7.57;;;;;;;;;;5084382;28;20020;-88
2021/09/23 01:22:44;;;;;;;22.92;10.05;;;;;;;;;;5094032;28;20059;-88
2021/09/23 01:25:10;;;;;;;27.85;11.35;;;;;;;;;;5092647;28;20027;-87
2021/09/23 01:27:35;;;;;;;22.95;11.73;;;;;;;;;;5092599;28;20472;-88
2021/09/23 01:30:02;;;;;;;24.88;10.55;;;;;;;;;;5092392;28;20119;-88
2021/09/23 01:32:27;;;;;;;22.48;10.13;;;;;;;;;;5092390;28;20028;-88
2021/09/23 01:34:52;;;;;;;21.00;9.60;;;;;;;;;;5091331;28;20023;-88
2021/09/23 01:37:17;;;;;;;20.08;8.43;;;;;;;;;;5093265;28;20023;-87
2021/09/23 01:39:43;;;;;;;22.90;9.57;;;;;;;;;;5092322;28;20020;-88
2021/09/23 01:42:08;;;;;;;21.90;10.48;;;;;;;;;;5108818;28;20062;-87
2021/09/23 01:44:34;;;;;;;23.58;11.23;;;;;;;;;;5092197;28;20479;-87
2021/09/23 01:46:59;;;;;;;29.40;11.73;;;;;;;;;;5092330;28;20098;-88
2021/09/23 01:49:24;;;;;;;29.63;11.35;;;;;;;;;;5093153;28;20028;-87
2021/09/23 01:51:49;;;;;;;27.95;11.52;;;;;;;;;;5093226;28;20020;-87
2021/09/23 01:54:15;;;;;;;26.58;11.20;;;;;;;;;;5092120;28;20380;-88
2021/09/23 01:56:40;;;;;;;35.97;12.10;;;;;;;;;;5091768;28;20054;-88
2021/09/23 01:59:06;;;;;;;27.45;12.52;;;;;;;;;;5092207;28;20372;-88
2021/09/23 02:01:31;;;;;;;22.02;9.90;;;;;;;;;;5091786;28;20044;-88
2021/09/23 02:03:56;;;;;;;20.40;9.63;;;;;;;;;;5093262;28;20027;-88
2021/09/23 02:06:21;;;;;;;20.83;9.52;;;;;;;;;;5092972;28;20069;-88
2021/09/23 02:08:47;;;;;;;21.58;10.27;;;;;;;;;;5093250;28;20046;-88
2021/09/23 02:11:12;;;;;;;29.30;9.70;;;;;;;;;;5093278;28;20032;-88
2021/09/23 02:13:38;;;;;;;21.20;9.80;;;;;;;;;;5093051;28;20020;-86
2021/09/23 02:16:03;;;;;;;22.10;10.07;;;;;;;;;;5107209;28;20028;-87
2021/09/23 02:18:29;;;;;;;22.23;9.27;;;;;;;;;;5091224;28;20026;-88
2021/09/23 02:20:54;;;;;;;21.33;9.80;;;;;;;;;;5091928;28;20467;-88
2021/09/23 02:23:19;;;;;;;20.70;9.98;;;;;;;;;;5091929;28;20028;-88
2021/09/23 02:25:44;;;;;;;20.35;10.18;;;;;;;;;;5091356;28;20020;-88
2021/09/23 02:28:09;;;;;;;19.08;10.02;;;;;;;;;;5092058;28;20016;-88
2021/09/23 02:30:35;;;;;;;22.20;9.18;;;;;;;;;;5091295;28;20119;-88
2021/09/23 02:33:00;;;;;;;19.52;9.13;;;;;;;;;;5092765;28;20112;-88
2021/09/23 02:35:25;;;;;;;17.65;8.82;;;;;;;;;;5092815;28;20016;-88
2021/09/23 02:37:51;;;;;;;21.38;9.82;;;;;;;;;;5091507;28;20421;-87
2021/09/23 02:40:16;;;;;;;20.73;8.88;;;;;;;;;;5091226;28;20027;-88
2021/09/23 02:42:44;;;;;;;17.48;8.57;;;;;;;;;;5092632;28;20020;-88
2021/09/23 02:45:10;;;;;;;19.60;9.57;;;;;;;;;;5106339;28;20024;-88
2021/09/23 02:47:36;;;;;;;24.00;9.52;;;;;;;;;;5103538;28;20020;-88
2021/09/23 02:50:02;;;;;;;24.55;9.82;;;;;;;;;;5090989;28;20103;-88
2021/09/23 02:52:27;;;;;;;18.33;9.27;;;;;;;;;;5092674;28;20051;-88
2021/09/23 02:54:53;;;;;;;21.70;9.52;;;;;;;;;;5090912;28;20538;-88
2021/09/23 02:57:18;;;;;;;19.13;9.35;;;;;;;;;;5091313;28;20032;-88
2021/09/23 02:59:43;;;;;;;19.45;8.77;;;;;;;;;;5092313;28;20106;-88
2021/09/23 03:02:08;;;;;;;17.48;8.75;;;;;;;;;;5092577;28;20018;-88
2021/09/23 03:04:34;;;;;;;15.60;7.85;;;;;;;;;;5091507;28;20060;-88
2021/09/23 03:06:59;;;;;;;18.83;8.43;;;;;;;;;;5091212;28;20027;-88
2021/09/23 03:09:24;;;;;;;22.80;10.02;;;;;;;;;;5091155;28;20035;-88
2021/09/23 03:11:50;;;;;;;17.90;8.93;;;;;;;;;;5092376;28;20018;-89
2021/09/23 03:14:15;;;;;;;22.17;8.63;;;;;;;;;;5091294;28;20524;-88
2021/09/23 03:16:41;;;;;;;18.13;7.70;;;;;;;;;;5090902;28;20032;-87
2021/09/23 03:19:06;;;;;;;14.10;7.45;;;;;;;;;;5082888;28;20455;-88
2021/09/23 03:21:31;;;;;;;21.75;8.32;;;;;;;;;;5090981;28;20077;-88
2021/09/23 03:23:56;;;;;;;20.48;9.27;;;;;;;;;;5090886;28;20024;-88
2021/09/23 03:26:21;;;;;;;24.98;9.98;;;;;;;;;;5091299;28;20024;-88
2021/09/23 03:28:47;;;;;;;22.60;9.48;;;;;;;;;;5091606;28;20130;-88
2021/09/23 03:31:13;;;;;;;23.27;9.30;;;;;;;;;;5090863;28;20056;-88
2021/09/23 03:33:38;;;;;;;19.55;9.57;;;;;;;;;;5091118;28;20430;-88
2021/09/23 03:36:03;;;;;;;18.23;9.18;;;;;;;;;;5090692;28;20028;-88
2021/09/23 03:38:29;;;;;;;19.70;8.93;;;;;;;;;;5090913;28;20387;-87
2021/09/23 03:40:54;;;;;;;18.05;9.10;;;;;;;;;;5090462;28;20089;-88
2021/09/23 03:43:19;;;;;;;19.02;8.10;;;;;;;;;;5105962;28;20032;-88
2021/09/23 03:45:45;;;;;;;16.58;8.20;;;;;;;;;;5090974;28;20421;-87
2021/09/23 03:48:11;;;;;;;19.52;8.95;;;;;;;;;;5090652;28;20016;-88
2021/09/23 03:50:36;;;;;;;19.65;9.57;;;;;;;;;;5090435;28;20035;-88
2021/09/23 03:53:02;;;;;;;15.25;7.70;;;;;;;;;;5090817;28;20447;-87
2021/09/23 03:55:27;;;;;;;15.38;7.43;;;;;;;;;;5091102;28;20028;-88
2021/09/23 03:57:52;;;;;;;19.08;8.48;;;;;;;;;;5092079;28;20016;-87
2021/09/23 04:00:20;;;;;;;22.55;8.18;;;;;;;;;;5094369;28;20110;-88
2021/09/23 04:02:45;;;;;;;18.90;8.30;;;;;;;;;;5094569;28;20475;-88
2021/09/23 04:05:10;;;;;;;16.40;8.27;;;;;;;;;;5095199;28;20016;-88
2021/09/23 04:07:36;;;;;;;19.88;7.47;;;;;;;;;;5094217;28;20051;-88
2021/09/23 04:10:01;;;;;;;14.35;7.82;;;;;;;;;;5093861;28;20531;-88
2021/09/23 04:12:26;;;;;;;12.70;6.60;;;;;;;;;;5094376;28;20021;-88
2021/09/23 04:14:51;;;;;;;16.80;8.13;;;;;;;;;;5093938;28;20055;-88
2021/09/23 04:17:19;;;;;;;15.00;7.05;;;;;;;;;;5107871;28;20027;-88
2021/09/23 04:19:45;;;;;;;15.55;7.18;;;;;;;;;;5094168;28;20016;-88
2021/09/23 04:22:10;;;;;;;17.50;6.90;;;;;;;;;;5093783;28;20478;-88
2021/09/23 04:24:35;;;;;;;14.70;7.15;;;;;;;;;;5094153;28;20467;-88
2021/09/23 04:27:00;;;;;;;14.88;7.55;;;;;;;;;;5093019;28;20012;-88
2021/09/23 04:29:26;;;;;;;13.35;7.20;;;;;;;;;;5093900;28;20451;-88
2021/09/23 04:31:51;;;;;;;14.23;7.32;;;;;;;;;;5094010;28;20056;-87
2021/09/23 04:34:16;;;;;;;16.67;6.78;;;;;;;;;;5093478;28;20054;-88
2021/09/23 04:36:41;;;;;;;16.80;6.68;;;;;;;;;;5093863;28;20065;-88
2021/09/23 04:39:07;;;;;;;11.73;6.47;;;;;;;;;;5093578;28;20016;-88
2021/09/23 04:41:32;;;;;;;12.35;6.65;;;;;;;;;;5093742;28;20016;-88
2021/09/23 04:43:57;;;;;;;19.67;7.50;;;;;;;;;;5093766;28;20020;-87
2021/09/23 04:46:24;;;;;;;15.25;7.22;;;;;;;;;;5093231;28;20107;-88
2021/09/23 04:48:50;;;;;;;15.52;7.28;;;;;;;;;;5093633;28;20475;-88
2021/09/23 04:51:16;;;;;;;15.13;7.38;;;;;;;;;;5093050;28;20475;-87
2021/09/23 04:53:41;;;;;;;15.68;7.95;;;;;;;;;;5094471;28;20012;-88
2021/09/23 04:56:06;;;;;;;15.10;7.40;;;;;;;;;;5094788;28;20127;-87
2021/09/23 04:58:31;;;;;;;17.17;7.20;;;;;;;;;;5092938;28;20016;-88
2021/09/23 05:00:57;;;;;;;17.15;7.90;;;;;;;;;;5093330;28;20028;-87
2021/09/23 05:03:22;;;;;;;17.08;7.93;;;;;;;;;;5094098;28;20379;-88
2021/09/23 05:05:47;;;;;;;15.63;8.05;;;;;;;;;;5093159;28;20035;-87
2021/09/23 05:08:12;;;;;;;13.70;7.38;;;;;;;;;;5094353;28;20016;-88
2021/09/23 05:10:38;;;;;;;15.35;6.68;;;;;;;;;;5109941;28;20031;-88
2021/09/23 05:13:03;;;;;;;13.00;6.85;;;;;;;;;;5093116;28;20012;-88
2021/09/23 05:15:28;;;;;;;13.98;6.72;;;;;;;;;;5092494;28;20528;-87
2021/09/23 05:17:54;;;;;;;15.77;6.93;;;;;;;;;;5092665;28;20537;-88
2021/09/23 05:20:19;;;;;;;14.23;6.22;;;;;;;;;;5092950;28;20024;-87
2021/09/23 05:22:44;;;;;;;16.17;6.82;;;;;;;;;;5093081;28;20024;-88
2021/09/23 05:25:10;;;;;;;18.67;6.75;;;;;;;;;;5092826;28;20020;-87
2021/09/23 05:27:36;;;;;;;15.68;7.15;;;;;;;;;;5105226;28;20054;-88
2021/09/23 05:30:01;;;;;;;17.20;7.55;;;;;;;;;;5092629;28;20028;-88
2021/09/23 05:32:27;;;;;;;15.07;6.97;;;;;;;;;;5093861;28;20344;-89
2021/09/23 05:34:52;;;;;;;20.48;7.75;;;;;;;;;;5092680;28;20016;-88
2021/09/23 05:37:18;;;;;;;17.90;7.15;;;;;;;;;;5087189;28;20016;-88
2021/09/23 05:39:43;;;;;;;17.75;7.18;;;;;;;;;;5092216;28;20016;-88
2021/09/23 05:42:08;;;;;;;14.68;6.97;;;;;;;;;;5092651;28;20023;-88
2021/09/23 05:44:33;;;;;;;12.65;6.95;;;;;;;;;;5091976;28;20035;-89
2021/09/23 05:46:59;;;;;;;18.95;6.93;;;;;;;;;;5093238;28;20019;-88
2021/09/23 05:49:24;;;;;;;15.73;8.05;;;;;;;;;;5094272;28;20028;-88
2021/09/23 05:51:49;;;;;;;14.65;7.38;;;;;;;;;;5106691;27;20074;-87
2021/09/23 05:54:15;;;;;;;19.70;8.32;;;;;;;;;;5090947;28;20038;-88
2021/09/23 05:56:41;;;;;;;22.10;8.45;;;;;;;;;;5093226;28;20073;-88
2021/09/23 05:59:06;;;;;;;22.05;8.20;;;;;;;;;;5092100;28;20016;-88
2021/09/23 06:01:32;;;;;;;16.42;7.80;;;;;;;;;;5091559;28;20028;-88
2021/09/23 06:03:57;;;;;;;20.20;8.77;;;;;;;;;;5092144;28;20031;-87
2021/09/23 06:06:22;;;;;;;23.38;9.15;;;;;;;;;;5092267;28;20020;-87
2021/09/23 06:08:47;;;;;;;19.90;8.68;;;;;;;;;;5109090;28;20020;-88
2021/09/23 06:11:13;;;;;;;22.33;9.10;;;;;;;;;;5104089;28;20048;-88
2021/09/23 06:13:38;;;;;;;20.10;9.02;;;;;;;;;;5104471;28;20486;-87
2021/09/23 06:16:04;;;;;;;22.40;9.10;;;;;;;;;;5091949;28;20058;-88
2021/09/23 06:18:29;;;;;;;21.65;7.72;;;;;;;;;;5092699;28;20095;-88
2021/09/23 06:20:54;;;;;;;17.98;9.10;;;;;;;;;;5103083;28;20464;-87
2021/09/23 06:23:19;;;;;;;14.65;7.45;;;;;;;;;;5090668;28;20028;-88
2021/09/23 06:25:44;;;;;;;16.10;6.05;;;;;;;;;;5090689;28;20028;-88
2021/09/23 06:28:11;;;;;;;14.25;6.38;;;;;;;;;;5090463;28;20024;-88
2021/09/23 06:30:36;;;;;;;12.90;6.20;;;;;;;;;;5089643;28;20411;-88
2021/09/23 06:33:01;;;;;;;14.25;6.95;;;;;;;;;;5091814;28;20012;-88
2021/09/23 06:35:26;;;;;;;14.40;6.70;;;;;;;;;;5090679;28;20040;-87
2021/09/23 06:37:53;;;;;;;13.32;7.15;;;;;;;;;;5089634;28;20031;-88
2021/09/23 06:40:18;;;;;;;14.63;7.90;;;;;;;;;;5091851;28;20121;-88
2021/09/23 06:42:43;;;;;;;15.10;8.27;;;;;;;;;;5091118;28;20051;-87
2021/09/23 06:45:12;;;;;;;17.25;8.75;;;;;;;;;;5092129;28;20024;-86
2021/09/23 06:47:37;;;;;;;14.50;7.90;;;;;;;;;;5091328;28;20024;-88
2021/09/23 06:50:02;;;;;;;16.23;7.32;;;;;;;;;;5092300;28;20031;-88
2021/09/23 06:52:27;;;;;;;21.67;9.13;;;;;;;;;;5091713;28;20368;-87
2021/09/23 06:54:54;;;;;;;15.02;7.28;;;;;;;;;;5091110;28;20073;-88
2021/09/23 06:57:19;;;;;;;18.55;8.82;;;;;;;;;;5091012;28;20120;-88
2021/09/23 06:59:44;;;;;;;20.80;8.88;;;;;;;;;;5092333;28;20036;-88
2021/09/23 07:02:09;;;;;;;17.20;8.07;;;;;;;;;;5108002;28;20479;-88
2021/09/23 07:04:35;;;;;;;15.50;7.60;;;;;;;;;;5091236;28;20111;-88
2021/09/23 07:07:00;;;;;;;17.33;8.02;;;;;;;;;;5092002;28;20020;-88
2021/09/23 07:09:25;;;;;;;15.23;8.05;;;;;;;;;;5091286;28;20031;-88
2021/09/23 07:11:51;;;;;;;15.82;7.15;;;;;;;;;;5090725;28;20028;-88
2021/09/23 07:14:16;;;;;;;17.85;7.85;;;;;;;;;;5091232;28;20028;-88
2021/09/23 07:16:41;;;;;;;18.15;8.73;;;;;;;;;;5090749;28;20028;-88
2021/09/23 07:19:07;;;;;;;25.88;8.35;;;;;;;;;;5108118;28;20012;-88
2021/09/23 07:21:32;;;;;;;15.20;7.85;;;;;;;;;;5090909;28;20411;-89
2021/09/23 07:23:58;;;;;;;18.98;10.40;;;;;;;;;;5090557;28;20428;-89
2021/09/23 07:26:24;;;;;;;19.33;9.10;;;;;;;;;;5082967;28;20387;-89
2021/09/23 07:28:49;;;;;;;21.42;11.05;;;;;;;;;;5092417;28;20031;-88
2021/09/23 07:31:14;;;;;;;29.45;12.80;;;;;;;;;;5090548;28;20024;-88
2021/09/23 07:33:39;;;;;;;23.20;10.50;;;;;;;;;;5093978;28;20020;-88
2021/09/23 07:36:05;;;;;;;23.65;12.15;;;;;;;;;;5096142;28;20020;-88
2021/09/23 07:38:30;;;;;;;26.63;11.43;;;;;;;;;;5094750;28;20042;-88
2021/09/23 07:40:55;;;;;;;30.42;13.82;;;;;;;;;;5094275;28;20020;-88
2021/09/23 07:43:21;;;;;;;31.33;14.02;;;;;;;;;;5094632;28;20035;-88
2021/09/23 07:45:46;;;;;;;26.67;14.35;;;;;;;;;;5094803;28;20020;-88
2021/09/23 07:48:11;;;;;;;26.83;13.05;;;;;;;;;;5094563;28;20012;-88
2021/09/23 07:50:36;;;;;;;32.03;14.82;;;;;;;;;;5094419;28;20051;-87
2021/09/23 07:53:02;;;;;;;27.65;10.75;;;;;;;;;;5095779;28;20100;-88
2021/09/23 07:55:27;;;;;;;37.45;14.55;;;;;;;;;;5094637;28;20067;-88
2021/09/23 07:57:52;;;;;;;25.33;12.85;;;;;;;;;;5086645;28;20078;-88
2021/09/23 08:00:17;;;;;;;35.75;16.95;;;;;;;;;;5094425;28;20055;-88
2021/09/23 08:02:43;;;;;;;37.42;15.90;;;;;;;;;;5094584;28;20471;-87
2021/09/23 08:05:08;;;;;;;30.65;15.95;;;;;;;;;;5094369;28;20162;-87
2021/09/23 08:07:34;;;;;;;33.70;15.85;;;;;;;;;;5094165;28;20491;-88
2021/09/23 08:09:59;;;;;;;27.88;9.98;;;;;;;;;;5093747;28;20027;-88
2021/09/23 08:12:24;;;;;;;31.65;14.95;;;;;;;;;;5093687;28;20081;-88
2021/09/23 08:14:49;;;;;;;26.45;13.30;;;;;;;;;;5093968;28;20111;-89
2021/09/23 08:17:15;;;;;;;35.15;14.70;;;;;;;;;;5093618;28;20026;-88
2021/09/23 08:19:40;;;;;;;29.10;14.85;;;;;;;;;;5093292;28;20020;-88
2021/09/23 08:22:06;;;;;;;33.75;15.02;;;;;;;;;;5093432;28;20027;-88
2021/09/23 08:24:31;;;;;;;33.50;14.82;;;;;;;;;;5092517;28;20028;-88
2021/09/23 08:26:57;;;;;;;22.63;10.63;;;;;;;;;;5093423;28;20062;-88
2021/09/23 08:29:22;;;;;;;36.67;13.95;;;;;;;;;;5094685;28;20020;-87
2021/09/23 08:31:47;;;;;;;36.42;15.32;;;;;;;;;;5093802;28;20028;-88
2021/09/23 08:34:13;;;;;;;27.50;10.75;;;;;;;;;;5093704;28;20020;-88
2021/09/23 08:36:38;;;;;;;23.95;10.85;;;;;;;;;;5095048;28;20494;-87
2021/09/23 08:39:03;;;;;;;30.88;13.90;;;;;;;;;;5094008;28;20396;-88
2021/09/23 08:41:29;;;;;;;27.67;13.27;;;;;;;;;;5093285;28;20429;-88
2021/09/23 08:43:55;;;;;;;39.85;13.00;;;;;;;;;;5093399;28;20115;-89
2021/09/23 08:46:20;;;;;;;30.48;13.70;;;;;;;;;;5094314;28;20081;-89
2021/09/23 08:48:48;;;;;;;16.17;5.75;;;;;;;;;;5093597;28;20052;-86
2021/09/23 08:51:13;;;;;;;35.10;12.77;;;;;;;;;;5093263;28;20047;-85
2021/09/23 08:53:40;;;;;;;30.30;12.40;;;;;;;;;;5094023;28;20028;-85
2021/09/23 08:56:05;;;;;;;26.92;13.32;;;;;;;;;;5093591;28;20073;-84
2021/09/23 08:58:32;;;;;;;26.02;12.43;;;;;;;;;;5094297;28;20024;-85
2021/09/23 09:01:00;;;;;;;28.83;13.50;;;;;;;;;;5094336;28;20024;-85
2021/09/23 09:03:26;;;;;;;27.80;13.63;;;;;;;;;;5093048;28;20116;-85
2021/09/23 09:05:52;;;;;;;26.85;10.45;;;;;;;;;;5092483;28;20052;-85
2021/09/23 09:08:18;;;;;;;27.02;12.93;;;;;;;;;;5093063;28;20069;-85
2021/09/23 09:10:43;;;;;;;21.77;9.95;;;;;;;;;;5092917;28;20032;-86
2021/09/23 09:13:08;;;;;;;27.85;12.30;;;;;;;;;;5092742;28;20058;-85
2021/09/23 09:15:36;;;;;;;30.17;15.05;;;;;;;;;;5093563;28;20737;-85
2021/09/23 09:18:21;;;;;;;31.20;13.23;;;;;;;;;;5090529;28;20077;-86
2021/09/23 09:20:56;;;;;;;26.55;11.52;;;;;;;;;;5090440;28;20801;-86
2021/09/23 09:23:22;;;;;;;27.92;12.82;;;;;;;;;;5092753;28;20178;-85
2021/09/23 09:25:48;;;;;;;34.40;14.70;;;;;;;;;;5094226;28;20032;-87
2021/09/23 09:28:20;;;;;;;28.95;12.98;;;;;;;;;;5093137;28;20076;-87
2021/09/23 09:30:45;;;;;;;;;;;;;;;;;;5092233;28;20162;-86
2021/09/23 09:33:10;;;;;;;33.97;12.77;;;;;;;;;;5094879;28;20373;-86
2021/09/23 09:35:36;;;;;;;29.75;13.48;;;;;;;;;;5093832;28;20373;-86
2021/09/23 09:38:02;;;;;;;29.50;13.07;;;;;;;;;;5092155;28;20085;-86
2021/09/23 09:40:32;;;;;;;23.23;12.00;;;;;;;;;;5093525;28;20526;-87
2021/09/23 09:43:00;;;;;;;20.98;8.38;;;;;;;;;;5091970;28;20234;-87
2021/09/23 09:45:27;;;;;;;20.88;12.45;;;;;;;;;;5092325;28;20020;-90
2021/09/23 09:47:55;;;;;;;21.70;9.85;;;;;;;;;;5092535;28;20544;-90
2021/09/23 09:50:22;;;;;;;20.67;11.70;;;;;;;;;;5092568;28;20475;-90
2021/09/23 09:52:56;;;;;;;19.30;9.02;;;;;;;;;;5092586;28;20931;-90
2021/09/23 09:55:21;;;;;;;22.52;10.23;;;;;;;;;;5085142;28;20016;-90
2021/09/23 09:57:47;;;;;;;16.92;8.23;;;;;;;;;;5092816;28;20046;-89
2021/09/23 10:00:13;;;;;;;28.45;10.10;;;;;;;;;;5100939;28;20122;-90
2021/09/23 10:02:38;;;;;;;28.02;10.10;;;;;;;;;;5093116;28;20074;-89
2021/09/23 10:05:04;;;;;;;20.83;9.55;;;;;;;;;;5091812;28;20356;-88
2021/09/23 10:07:30;;;;;;;24.77;11.23;;;;;;;;;;5092184;28;20028;-89
2021/09/23 10:09:56;;;;;;;17.42;9.98;;;;;;;;;;5091812;28;20028;-89
2021/09/23 10:12:22;;;;;;;19.38;9.55;;;;;;;;;;5092404;28;20109;-90
2021/09/23 10:14:49;;;;;;;18.98;10.45;;;;;;;;;;5092624;28;20051;-89
2021/09/23 10:17:14;;;;;;;7.68;3.90;;;;;;;;;;5091853;28;20028;-90
2021/09/23 10:19:41;;;;;;;26.08;11.45;;;;;;;;;;5092124;28;20466;-89
2021/09/23 10:22:09;;;;;;;21.48;9.23;;;;;;;;;;5092060;28;20046;-89
2021/09/23 10:24:35;;;;;;;25.08;7.97;;;;;;;;;;5093038;28;20091;-89
2021/09/23 10:27:00;;;;;;;18.85;9.77;;;;;;;;;;5091462;28;20058;-89
2021/09/23 10:29:26;;;;;;;21.48;6.95;;;;;;;;;;5087748;28;20491;-89
2021/09/23 10:31:58;;;;;;;27.77;12.13;;;;;;;;;;5088628;28;20377;-90
2021/09/23 10:34:23;;;;;;;;;;;;;;;;;;5090793;28;20456;-89
2021/09/23 10:36:50;;;;;;;18.50;8.88;;;;;;;;;;5087409;28;19947;-90
2021/09/23 10:39:16;;;;;;;23.48;8.75;;;;;;;;;;5104322;28;20016;-89
2021/09/23 10:41:42;;;;;;;15.35;5.72;;;;;;;;;;5102077;28;20115;-90
2021/09/23 10:44:08;;;;;;;20.70;11.15;;;;;;;;;;5089309;28;20027;-90
2021/09/23 10:46:34;;;;;;;21.02;11.25;;;;;;;;;;5091568;28;20024;-89
2021/09/23 10:49:01;;;;;;;16.30;7.57;;;;;;;;;;5092048;28;20020;-89
2021/09/23 10:51:26;;;;;;;13.40;6.72;;;;;;;;;;5088747;28;20024;-89
2021/09/23 10:53:57;;;;;;;19.90;8.50;;;;;;;;;;5105114;28;20023;-90
2021/09/23 10:56:22;;;;;;;15.88;7.55;;;;;;;;;;5090777;28;20494;-89
2021/09/23 10:58:48;;;;;;;9.88;5.00;;;;;;;;;;5108572;28;20020;-89
2021/09/23 11:01:25;;;;;;;12.98;7.28;;;;;;;;;;5091309;28;20035;-89
2021/09/23 11:03:51;;;;;;;16.58;8.70;;;;;;;;;;5087238;28;20090;-89
2021/09/23 11:06:16;;;;;;;17.08;7.50;;;;;;;;;;5092003;28;20031;-90
2021/09/23 11:08:46;;;;;;;18.58;8.70;;;;;;;;;;5096466;28;20417;-88
2021/09/23 11:11:12;;;;;;;14.70;8.93;;;;;;;;;;5108759;28;20353;-88
2021/09/23 11:13:38;;;;;;;20.15;7.93;;;;;;;;;;5095552;28;20031;-89
2021/09/23 11:16:04;;;;;;;17.65;9.38;;;;;;;;;;5109297;28;20027;-87
2021/09/23 11:18:30;;;;;;;13.57;6.05;;;;;;;;;;5090028;28;20020;-87
2021/09/23 11:20:56;;;;;;;14.25;6.53;;;;;;;;;;5107819;28;20089;-88
2021/09/23 11:23:22;;;;;;;12.52;5.80;;;;;;;;;;5094381;28;20024;-88
2021/09/23 11:25:50;;;;;;;13.77;7.18;;;;;;;;;;5110046;28;20107;-88
2021/09/23 11:28:18;;;;;;;17.88;7.07;;;;;;;;;;5095444;28;20633;-88
2021/09/23 11:30:44;;;;;;;19.17;7.25;;;;;;;;;;5094655;28;20031;-88
2021/09/23 11:33:11;;;;;;;15.35;6.63;;;;;;;;;;5112949;27;20360;-88
2021/09/23 11:35:40;;;;;;;17.33;7.63;;;;;;;;;;5109962;28;20050;-88
2021/09/23 11:38:06;;;;;;;17.80;8.68;;;;;;;;;;5093626;28;20150;-87
2021/09/23 11:40:33;;;;;;;22.42;9.00;;;;;;;;;;5107381;28;20103;-86
2021/09/23 11:43:03;;;;;;;17.05;8.55;;;;;;;;;;5094884;28;20020;-88
2021/09/23 11:45:31;;;;;;;19.58;8.75;;;;;;;;;;5095115;28;20031;-87
2021/09/23 11:47:59;;;;;;;4.95;2.03;;;;;;;;;;5093529;28;20028;-85
2021/09/23 11:50:36;;;;;;;15.52;8.02;;;;;;;;;;5120700;27;20021;-87
2021/09/23 11:53:14;;;;;;;18.17;9.23;;;;;;;;;;5094557;28;20008;-86
2021/09/23 11:55:44;;;;;;;18.35;7.82;;;;;;;;;;5104158;28;20012;-87
2021/09/23 11:58:13;;;;;;;13.85;6.60;;;;;;;;;;5094328;28;20489;-87
2021/09/23 12:00:42;;;;;;;11.30;5.05;;;;;;;;;;5109156;28;20137;-87
2021/09/23 12:03:08;;;;;;;14.63;5.88;;;;;;;;;;5095055;28;20097;-87
2021/09/23 12:05:34;;;;;;;13.80;5.68;;;;;;;;;;5110091;28;20027;-87
2021/09/23 12:08:10;;;;;;;19.88;6.93;;;;;;;;;;5097295;28;20024;-86
2021/09/23 12:10:55;;;;;;;13.88;6.55;;;;;;;;;;5094892;28;20098;-87
2021/09/23 12:13:34;;;;;;;15.35;6.40;;;;;;;;;;5095039;28;20535;-87
2021/09/23 12:16:00;;;;;;;13.77;5.53;;;;;;;;;;5099601;28;20410;-87
2021/09/23 12:18:27;;;;;;;20.85;9.00;;;;;;;;;;5092738;28;20024;-86
2021/09/23 12:20:54;;;;;;;17.17;7.35;;;;;;;;;;5093979;28;20047;-87
2021/09/23 12:23:39;;;;;;;14.63;7.78;;;;;;;;;;5093646;28;20410;-87
2021/09/23 12:26:16;;;;;;;14.85;7.25;;;;;;;;;;5100532;28;20016;-87
2021/09/23 12:28:51;;;;;;;13.05;8.18;;;;;;;;;;5093282;28;20106;-87
2021/09/23 12:31:25;;;;;;;13.98;8.40;;;;;;;;;;5093682;28;20544;-88
2021/09/23 12:33:54;;;;;;;10.15;5.13;;;;;;;;;;5093594;28;20124;-86
2021/09/23 12:36:24;;;;;;;18.77;8.25;;;;;;;;;;5093312;28;20467;-87
2021/09/23 12:39:01;;;;;;;18.30;8.40;;;;;;;;;;5110075;28;20070;-86
2021/09/23 12:41:26;;;;;;;18.45;8.43;;;;;;;;;;5092496;28;20048;-86
2021/09/23 12:44:02;;;;;;;14.90;7.80;;;;;;;;;;5110068;28;20028;-86
2021/09/23 12:46:29;;;;;;;13.20;6.95;;;;;;;;;;5092947;28;20020;-86
2021/09/23 12:49:10;;;;;;;19.50;7.68;;;;;;;;;;5084447;28;20459;-86
2021/09/23 12:51:36;;;;;;;11.70;4.10;;;;;;;;;;5094170;28;20021;-86
2021/09/23 12:54:15;;;;;;;14.38;7.75;;;;;;;;;;5089502;28;20016;-86
2021/09/23 12:56:40;;;;;;;12.15;7.60;;;;;;;;;;5094417;28;20016;-86
2021/09/23 12:59:22;;;;;;;11.50;5.00;;;;;;;;;;5093406;28;20020;-86
2021/09/23 13:01:48;;;;;;;16.55;7.35;;;;;;;;;;5092629;28;20539;-86
2021/09/23 13:04:20;;;;;;;10.98;6.00;;;;;;;;;;5092841;28;20090;-86
2021/09/23 13:06:45;;;;;;;10.90;5.50;;;;;;;;;;5092435;28;20535;-86
2021/09/23 13:09:11;;;;;;;7.70;4.95;;;;;;;;;;5094905;28;20055;-86
2021/09/23 13:11:36;;;;;;;9.30;6.05;;;;;;;;;;5093010;28;20022;-86
2021/09/23 13:14:20;;;;;;;10.85;6.57;;;;;;;;;;5092587;28;20746;-85
2021/09/23 13:16:45;;;;;;;12.00;5.55;;;;;;;;;;5092693;28;20016;-85
2021/09/23 13:19:10;;;;;;;12.10;5.32;;;;;;;;;;5092688;28;20068;-86
2021/09/23 13:21:39;;;;;;;5.25;2.83;;;;;;;;;;5092800;28;20488;-86
2021/09/23 13:24:04;;;;;;;6.30;3.25;;;;;;;;;;5105538;28;20484;-86
2021/09/23 13:26:29;;;;;;;4.90;3.03;;;;;;;;;;5092974;28;20059;-86
2021/09/23 13:28:57;;;;;;;7.70;4.88;;;;;;;;;;5092311;28;20486;-85
2021/09/23 13:31:23;;;;;;;9.52;5.20;;;;;;;;;;5084639;28;20475;-87
2021/09/23 13:33:48;;;;;;;12.27;4.75;;;;;;;;;;5093300;28;20023;-86
2021/09/23 13:36:13;;;;;;;10.82;5.10;;;;;;;;;;5092306;28;20028;-86
2021/09/23 13:38:38;;;;;;;7.15;3.80;;;;;;;;;;5092455;28;20077;-86
2021/09/23 13:41:04;;;;;;;11.60;4.72;;;;;;;;;;5091908;28;20028;-86
2021/09/23 13:43:30;;;;;;;7.95;3.65;;;;;;;;;;5093616;28;20020;-87
2021/09/23 13:45:55;;;;;;;14.80;4.25;;;;;;;;;;5091856;28;20126;-86
2021/09/23 13:48:21;;;;;;;7.75;4.38;;;;;;;;;;5083921;28;20031;-86
2021/09/23 13:50:48;;;;;;;7.72;4.15;;;;;;;;;;5091495;28;20030;-87
2021/09/23 13:53:16;;;;;;;7.70;3.95;;;;;;;;;;5091771;28;20051;-86
2021/09/23 13:55:41;;;;;;;8.02;3.30;;;;;;;;;;5092140;28;20104;-86
2021/09/23 13:58:08;;;;;;;6.13;3.25;;;;;;;;;;5091696;28;20099;-86
2021/09/23 14:00:33;;;;;;;7.30;3.55;;;;;;;;;;5093559;28;20137;-86
2021/09/23 14:03:00;;;;;;;4.88;3.35;;;;;;;;;;5091475;28;20036;-86
2021/09/23 14:05:25;;;;;;;7.20;2.47;;;;;;;;;;5097754;28;20429;-86
2021/09/23 14:07:50;;;;;;;6.40;3.08;;;;;;;;;;5092780;28;20016;-86
2021/09/23 14:10:16;;;;;;;3.83;2.45;;;;;;;;;;5091474;28;20119;-86
2021/09/23 14:12:41;;;;;;;4.95;3.22;;;;;;;;;;5092976;28;20015;-86
2021/09/23 14:15:07;;;;;;;4.93;2.63;;;;;;;;;;5091711;28;20012;-86
2021/09/23 14:17:33;;;;;;;6.43;3.28;;;;;;;;;;5091178;28;20534;-87
2021/09/23 14:19:58;;;;;;;8.35;3.00;;;;;;;;;;5091257;28;20158;-85
2021/09/23 14:22:24;;;;;;;6.32;2.78;;;;;;;;;;5104847;28;20028;-87
2021/09/23 14:24:50;;;;;;;10.55;3.20;;;;;;;;;;5091784;28;20016;-86